CheckWX is a tool to help pilots better visualize weather data.  It is not intended as a substitute for an official pre-flight weather briefing.

16:36:17 UTC

EGXU TAF
RAF Linton-On-Ouse Airport
Linton-On-Ouse, United Kingdom
TAF EGXU 181335Z 1815/1824 24005KT 9999 SCT030 PROB30 TEMPO 1818/1824 7000 -RA BKN018

Mar-18@
15:00 UTC

Mar-18 @ 15:00 UTC

Mar-19@
00:00 UTC

Mar-19 @ 00:00 UTC

TAF EGXU 181335Z 1815/1824 24005KT 9999 SCT030
Wind
  • 240° at 5 KTS
Cloud Levels
  • Scattered at 3,000' AGL

Mar-18@
18:00 UTC

Mar-18 @ 18:00 UTC

Mar-19@
00:00 UTC

Mar-19 @ 00:00 UTC

PROB30 TEMPO 1818/1824 7000 -RA BKN018

Temporary - 30% Likelihood

Temporary - 30% Likelihood during this time.

Conditions
Light Rain
Cloud Levels
  • Broken at 1,800' AGL